Spring Park, MN

9:28 AM CDT on June 03, 2015 (GMT -0500)
Spring Park Bay | | Change Station
CLOSE
Current Station
Personal Weather Station
Location: Mound, MN
Elevation: 956 ft
Nearby Weather Stations

Elev 956 ft 44.93 °N, 93.63 °W | Updated 12 seconds ago

Overcast
Overcast
64.8 °F
Feels Like 64.8 °F
N
1.4
Wind Variable Wind from SE
Gusts 7.0 mph

Today
High -- | Low -- °F
--% Chance of Precip.
Yesterday
High -- | Low -- °F
Precip. -- in
5:30 AM 8:55 PM
Full, 99% visible
Pressure 29.84 in
Visibility 10.0 miles
Clouds Few 1500 ft
Mostly Cloudy 2600 ft
Dew Point 60 °F
Humidity 87%
Rainfall 0.00 in
Snow Depth Not available.
UV 3 out of 12
Pollen 1.00 out of 12
Air Quality Not available.
Flu Activity Sporadic
SPECI KFCM 031422Z 15010KT 10SM FEW015 BKN026 18/15 A2984 RMK AO2 T01780150

More Conditions Fewer Conditions

Pressure 29.84 in
Visibility 10.0 miles
Clouds Few 1500 ft
Mostly Cloudy 2600 ft
Dew Point 60 °F
Humidity 87%
Rainfall 0.00 in
Snow Depth Not available.
UV 3 out of 12
Pollen 1.00 out of 12
Air Quality Not available.
Flu Activity Sporadic
SPECI KFCM 031422Z 15010KT 10SM FEW015 BKN026 18/15 A2984 RMK AO2 T01780150

More Conditions Fewer Conditions

10-Day Weather Forecast

×

Almanac

Astronomy

Jun. 03, 2015 Rise Set
Actual Time
Civil Twilight
Nautical Twilight
Astronomical Twilight
Moon
Length of Visible Light
Length of Day
Tomorrow will be .
, % of the Moon is Illuminated

Today's Extremes

State Highs State Lows

Community

WunderPhotos

Upload Photos

1,826,229 photos uploaded!

WunderBlogs® & News

Nearby

Air Quality

  Air Quality AQ Index Pollutant
Not available.

Snow Depth

Station Depth Elevation

Earthquake Activity

City Distance Mag. Time & Date
Minimum magnitude displayed is 2.5.

Coastal Water Temperatures

Place Temperature

Stations

Nearby Weather Stations

Station Location Temp. Windchill Dew Point Humidity Wind Precip. Elev Updated Type